Time;durP1;ratioP1;P1;durP2;ratioP2;P2;SDS_P1;SDS_P2;PMS_P1;PMS_P2;Temp;Humidity;BMP_temperature;BMP_pressure;BME280_temperature;BME280_humidity;BME280_pressure;Samples;Min_cycle;Max_cycle;Signal;HPM_P1;HPM_P2
2021/01/13 00:00:57;;;;;;;27.85;15.18;;;-1.60;75.00;;;;;;5135921;27;20059;-84
2021/01/13 00:03:22;;;;;;;27.77;15.77;;;-1.50;75.20;;;;;;5135728;27;20022;-85
2021/01/13 00:05:48;;;;;;;26.83;15.77;;;-1.50;75.30;;;;;;5135859;27;20019;-84
2021/01/13 00:08:14;;;;;;;25.95;15.23;;;-1.60;75.00;;;;;;5135724;27;20026;-84
2021/01/13 00:10:39;;;;;;;28.90;15.93;;;-1.60;75.20;;;;;;5135428;27;20031;-83
2021/01/13 00:13:05;;;;;;;26.05;15.63;;;-1.60;75.40;;;;;;5135581;27;20478;-84
2021/01/13 00:15:31;;;;;;;26.92;15.77;;;-1.60;75.30;;;;;;5135692;27;20038;-84
2021/01/13 00:17:56;;;;;;;27.55;14.90;;;-1.60;75.10;;;;;;5135823;27;20030;-84
2021/01/13 00:20:22;;;;;;;25.45;15.25;;;-1.60;75.30;;;;;;5135640;27;20023;-84
2021/01/13 00:22:48;;;;;;;28.75;16.55;;;-1.60;75.30;;;;;;5135205;27;20476;-84
2021/01/13 00:25:15;;;;;;;25.85;15.95;;;-1.60;75.50;;;;;;5136215;27;20024;-85
2021/01/13 00:27:41;;;;;;;28.60;17.08;;;-1.50;75.50;;;;;;5135487;27;20053;-84
2021/01/13 00:30:07;;;;;;;28.13;14.88;;;-1.60;75.70;;;;;;5170382;27;20019;-84
2021/01/13 00:32:33;;;;;;;28.40;16.23;;;-1.50;75.90;;;;;;5135479;27;20023;-84
2021/01/13 00:34:59;;;;;;;26.95;17.25;;;-1.50;75.80;;;;;;5169753;27;20130;-84
2021/01/13 00:37:25;;;;;;;27.77;16.48;;;-1.50;75.80;;;;;;5170158;27;20492;-84
2021/01/13 00:39:50;;;;;;;32.78;17.73;;;-1.50;75.80;;;;;;5135642;27;20027;-84
2021/01/13 00:42:16;;;;;;;32.35;18.05;;;-1.60;76.10;;;;;;5136705;27;20015;-84
2021/01/13 00:48:04;;;;;;;34.10;18.67;;;-1.60;76.60;;;;;;5136079;27;20046;-84
2021/01/13 00:50:30;;;;;;;32.10;17.73;;;-1.60;76.50;;;;;;5134575;27;20027;-84
2021/01/13 00:52:55;;;;;;;37.22;19.45;;;-1.60;76.80;;;;;;5134965;27;20388;-84
2021/01/13 00:55:21;;;;;;;32.55;17.40;;;-1.60;76.90;;;;;;5169776;27;20054;-84
2021/01/13 00:57:48;;;;;;;31.40;17.55;;;-1.60;76.80;;;;;;5169503;27;20023;-84
2021/01/13 01:00:15;;;;;;;31.23;16.95;;;-1.60;77.00;;;;;;5135114;27;20023;-84
2021/01/13 01:02:40;;;;;;;34.80;18.95;;;-1.60;77.20;;;;;;5134380;27;20023;-84
2021/01/13 01:05:07;;;;;;;35.35;19.58;;;-1.70;77.30;;;;;;5136374;27;20506;-85
2021/01/13 01:07:38;;;;;;;35.63;18.67;;;-1.70;77.60;;;;;;5134774;27;20019;-85
2021/01/13 01:10:04;;;;;;;31.58;18.20;;;-1.60;77.80;;;;;;5134853;27;20392;-85
2021/01/13 01:12:30;;;;;;;33.00;18.17;;;-1.70;77.50;;;;;;5134609;27;20465;-84
2021/01/13 01:14:55;;;;;;;30.80;17.92;;;-1.60;77.40;;;;;;5169138;27;20075;-85
2021/01/13 01:17:21;;;;;;;33.08;18.73;;;-1.70;77.40;;;;;;5135678;27;20385;-84
2021/01/13 01:19:48;;;;;;;34.70;19.55;;;-1.60;77.40;;;;;;5135557;27;20038;-84
2021/01/13 01:22:14;;;;;;;41.13;19.55;;;-1.70;77.30;;;;;;5134799;27;20023;-84
2021/01/13 01:24:39;;;;;;;45.28;19.60;;;-1.70;77.40;;;;;;5169004;27;20426;-84
2021/01/13 01:27:05;;;;;;;35.03;18.73;;;-1.70;77.60;;;;;;5135726;27;20019;-84
2021/01/13 01:29:31;;;;;;;32.85;17.73;;;-1.70;77.50;;;;;;5168832;27;20072;-84
2021/01/13 01:31:57;;;;;;;35.17;19.30;;;-1.70;77.20;;;;;;5134580;27;20027;-85
2021/01/13 01:34:22;;;;;;;36.60;19.33;;;-1.60;77.50;;;;;;5169092;27;20480;-84
2021/01/13 01:36:53;;;;;;;31.83;17.45;;;-1.60;77.40;;;;;;5170037;27;20027;-84
2021/01/13 01:39:19;;;;;;;32.20;18.30;;;-1.60;77.20;;;;;;5134355;27;20080;-85
2021/01/13 01:41:44;;;;;;;33.33;18.60;;;-1.50;77.40;;;;;;5136166;27;20031;-85
2021/01/13 01:44:10;;;;;;;36.83;19.70;;;-1.60;77.40;;;;;;5170466;27;20019;-84
2021/01/13 01:46:39;;;;;;;33.10;17.92;;;-1.70;77.30;;;;;;5168384;27;20075;-84
2021/01/13 01:49:05;;;;;;;34.28;19.63;;;-1.70;77.30;;;;;;5133910;27;20104;-84
2021/01/13 01:51:44;;;;;;;39.03;20.77;;;-1.60;77.60;;;;;;5135315;27;20423;-84
2021/01/13 01:54:16;;;;;;;36.83;19.52;;;-1.70;77.80;;;;;;5134064;27;20042;-84
2021/01/13 01:56:44;;;;;;;34.42;19.08;;;-1.70;77.80;;;;;;5133842;27;20027;-83
2021/01/13 01:59:12;;;;;;;35.00;18.58;;;-1.60;77.80;;;;;;5133139;27;20033;-84
2021/01/13 02:01:48;;;;;;;35.97;19.40;;;-1.60;77.30;;;;;;5135247;27;20019;-84
2021/01/13 02:04:29;;;;;;;34.05;19.52;;;-1.60;77.40;;;;;;5133904;28;20023;-84
2021/01/13 02:06:58;;;;;;;35.15;19.75;;;-1.60;78.00;;;;;;5133710;28;20019;-85
2021/01/13 02:09:27;;;;;;;37.60;20.55;;;-1.60;77.60;;;;;;5133971;28;20019;-84
2021/01/13 02:11:55;;;;;;;35.05;17.90;;;-1.70;77.40;;;;;;5129115;28;20054;-84
2021/01/13 02:14:21;;;;;;;36.17;19.35;;;-1.60;77.50;;;;;;5133491;28;20106;-85
2021/01/13 02:16:55;;;;;;;38.20;20.08;;;-1.60;77.40;;;;;;5133514;28;20043;-84
2021/01/13 02:19:47;;;;;;;39.58;19.52;;;-1.60;77.20;;;;;;5133686;28;20107;-85
2021/01/13 02:22:26;;;;;;;33.83;19.48;;;-1.70;77.40;;;;;;5122543;28;20027;-84
2021/01/13 02:25:10;;;;;;;38.50;21.60;;;-1.70;77.70;;;;;;5134046;28;20529;-85
2021/01/13 02:27:51;;;;;;;36.38;20.30;;;-1.70;77.60;;;;;;5134760;28;20027;-84
2021/01/13 02:30:24;;;;;;;36.50;19.33;;;-1.60;77.60;;;;;;5133992;28;20361;-84
2021/01/13 02:32:53;;;;;;;33.30;18.65;;;-1.60;77.30;;;;;;5133411;28;20057;-84
2021/01/13 02:35:27;;;;;;;41.67;20.10;;;-1.60;77.40;;;;;;5133878;28;20075;-84
2021/01/13 02:38:07;;;;;;;33.10;19.27;;;-1.70;77.20;;;;;;5133682;28;20062;-84
2021/01/13 02:40:34;;;;;;;35.35;18.58;;;-1.70;77.60;;;;;;5133262;28;20030;-84
2021/01/13 02:43:06;;;;;;;33.72;19.35;;;-1.70;77.70;;;;;;5133431;28;20080;-84
2021/01/13 02:45:46;;;;;;;34.45;19.23;;;-1.70;77.20;;;;;;5134791;27;20411;-84
2021/01/13 02:48:14;;;;;;;38.07;20.03;;;-1.70;77.60;;;;;;5134656;27;20039;-84
2021/01/13 02:51:00;;;;;;;37.47;21.23;;;-1.70;77.60;;;;;;5134509;27;20415;-84
2021/01/13 02:53:29;;;;;;;33.42;18.05;;;-1.70;77.20;;;;;;5133545;28;20028;-84
2021/01/13 02:55:55;;;;;;;34.30;18.27;;;-1.70;77.40;;;;;;5133472;28;20034;-84
2021/01/13 02:58:37;;;;;;;36.95;19.50;;;-1.70;77.20;;;;;;5134699;28;20457;-84
2021/01/13 03:01:09;;;;;;;34.95;19.23;;;-1.70;77.40;;;;;;5133454;28;20461;-84
2021/01/13 03:03:36;;;;;;;38.67;21.52;;;-1.70;77.40;;;;;;5133408;28;20492;-84
2021/01/13 03:06:09;;;;;;;36.65;20.15;;;-1.70;77.20;;;;;;5134342;28;20101;-84
2021/01/13 03:08:47;;;;;;;39.10;18.25;;;-1.70;77.50;;;;;;5132458;27;20034;-84
2021/01/13 03:11:20;;;;;;;32.13;18.60;;;-1.70;77.50;;;;;;5137841;27;20076;-84
2021/01/13 03:13:46;;;;;;;32.63;18.73;;;-1.70;77.40;;;;;;5137107;27;20026;-84
2021/01/13 03:16:13;;;;;;;37.95;19.80;;;-1.70;77.60;;;;;;5137182;27;20488;-84
2021/01/13 03:18:59;;;;;;;36.88;18.95;;;-1.80;77.90;;;;;;5136844;27;20431;-85
2021/01/13 03:21:42;;;;;;;43.15;21.63;;;-1.80;79.10;;;;;;5136933;27;20474;-84
2021/01/13 03:24:15;;;;;;;32.25;17.52;;;-1.80;79.50;;;;;;5138170;27;20464;-84
2021/01/13 03:26:46;;;;;;;32.35;18.52;;;-1.80;79.70;;;;;;5136718;27;20088;-84
2021/01/13 03:29:18;;;;;;;33.83;18.52;;;-1.80;78.70;;;;;;5137610;27;20111;-84
2021/01/13 03:32:16;;;;;;;37.42;19.85;;;-1.80;78.80;;;;;;5136263;27;20023;-84
2021/01/13 03:35:01;;;;;;;34.67;17.65;;;-1.80;79.00;;;;;;5137093;27;20101;-84
2021/01/13 03:37:51;;;;;;;37.53;19.52;;;-1.80;78.70;;;;;;5136441;27;20030;-84
2021/01/13 03:40:20;;;;;;;40.83;20.27;;;-1.70;78.60;;;;;;5135833;27;20071;-84
2021/01/13 03:42:52;;;;;;;37.17;19.55;;;-1.80;78.50;;;;;;5136617;27;20061;-84
2021/01/13 03:45:37;;;;;;;38.25;18.58;;;-1.80;78.50;;;;;;5137373;27;20365;-83
2021/01/13 03:48:19;;;;;;;38.50;19.63;;;-1.70;78.70;;;;;;5136044;27;20053;-84
2021/01/13 03:50:46;;;;;;;38.33;19.63;;;-1.80;78.80;;;;;;5137424;27;20098;-84
2021/01/13 03:53:14;;;;;;;34.20;19.13;;;-1.80;78.50;;;;;;5137366;27;20031;-84
2021/01/13 03:55:42;;;;;;;28.23;16.27;;;-1.80;78.20;;;;;;5137354;27;20027;-84
2021/01/13 03:58:32;;;;;;;37.10;19.88;;;-1.80;78.10;;;;;;5137753;27;20484;-84
2021/01/13 04:01:05;;;;;;;31.13;17.80;;;-1.80;78.10;;;;;;5135918;27;20034;-84
2021/01/13 04:03:36;;;;;;;40.92;19.83;;;-1.70;78.00;;;;;;5135858;27;20122;-84
2021/01/13 04:06:07;;;;;;;35.88;19.77;;;-1.80;78.00;;;;;;5136156;27;20384;-84
2021/01/13 04:08:42;;;;;;;36.08;19.13;;;-1.80;78.00;;;;;;5136177;27;20414;-84
2021/01/13 04:11:17;;;;;;;44.92;19.77;;;-1.90;78.00;;;;;;5135889;27;20031;-84
2021/01/13 04:13:48;;;;;;;32.00;17.83;;;-1.80;78.10;;;;;;5135356;27;20023;-84
2021/01/13 04:16:22;;;;;;;42.95;20.60;;;-1.80;78.30;;;;;;5135698;27;20118;-84
2021/01/13 04:18:50;;;;;;;35.47;18.20;;;-1.80;78.30;;;;;;5135332;27;20384;-84
2021/01/13 04:21:18;;;;;;;30.98;17.77;;;-1.80;78.50;;;;;;5134889;27;20030;-84
2021/01/13 04:23:44;;;;;;;36.40;17.60;;;-1.90;78.30;;;;;;5135484;27;20023;-84
2021/01/13 04:26:11;;;;;;;38.58;18.80;;;-1.90;78.50;;;;;;5136043;27;20035;-84
2021/01/13 04:28:38;;;;;;;32.17;17.90;;;-1.90;78.70;;;;;;5135848;27;20376;-84
2021/01/13 04:31:04;;;;;;;34.97;19.27;;;-1.90;78.60;;;;;;5135101;27;20031;-84
2021/01/13 04:33:30;;;;;;;38.58;20.10;;;-1.90;78.60;;;;;;5135366;27;20473;-84
2021/01/13 04:35:57;;;;;;;30.58;16.58;;;-1.90;79.00;;;;;;5136997;27;20031;-84
2021/01/13 04:38:29;;;;;;;36.70;19.48;;;-1.80;79.30;;;;;;5134697;27;20127;-84
2021/01/13 04:41:06;;;;;;;37.47;19.27;;;-1.90;79.20;;;;;;5135417;27;20023;-84
2021/01/13 04:43:58;;;;;;;40.70;20.98;;;-1.90;79.20;;;;;;5135402;27;20023;-84
2021/01/13 04:46:35;;;;;;;44.17;21.20;;;-2.00;79.70;;;;;;5136490;27;20468;-84
2021/01/13 04:49:09;;;;;;;36.22;19.60;;;-2.00;80.30;;;;;;5135260;27;20373;-88
2021/01/13 04:51:41;;;;;;;42.10;23.48;;;-2.00;80.20;;;;;;5135759;27;20027;-88
2021/01/13 04:54:09;;;;;;;39.53;21.75;;;-2.10;81.00;;;;;;5136997;27;20023;-88
2021/01/13 04:56:45;;;;;;;43.63;22.83;;;-2.10;81.30;;;;;;5135775;27;20023;-88
2021/01/13 04:59:56;;;;;;;44.35;23.23;;;-2.10;82.00;;;;;;5135561;27;20106;-87
2021/01/13 05:03:00;;;;;;;47.00;23.33;;;-2.20;83.00;;;;;;5129755;27;20058;-88
2021/01/13 05:05:29;;;;;;;44.78;22.10;;;-2.20;83.20;;;;;;5135282;27;20167;-87
2021/01/13 05:08:07;;;;;;;51.20;23.53;;;-2.30;83.90;;;;;;5135979;27;20015;-87
2021/01/13 05:10:41;;;;;;;56.30;25.13;;;-2.30;84.10;;;;;;5135358;27;20131;-87
2021/01/13 05:13:13;;;;;;;55.67;26.38;;;-2.40;86.10;;;;;;5137398;27;20027;-87
2021/01/13 05:15:42;;;;;;;60.83;28.02;;;-2.40;86.70;;;;;;5139080;27;20031;-87
2021/01/13 05:18:14;;;;;;;55.80;26.63;;;-2.50;87.50;;;;;;5134433;27;20392;-87
2021/01/13 05:20:40;;;;;;;50.47;24.73;;;-2.60;89.30;;;;;;5135416;27;20104;-87
2021/01/13 05:23:11;;;;;;;54.40;25.38;;;-2.60;89.00;;;;;;5135613;27;20534;-86
2021/01/13 05:25:41;;;;;;;64.88;29.65;;;-2.60;88.90;;;;;;5134503;27;20396;-88
2021/01/13 05:28:10;;;;;;;68.50;30.67;;;-2.70;89.90;;;;;;5134869;27;20455;-89
2021/01/13 05:30:44;;;;;;;64.60;30.65;;;-2.70;90.10;;;;;;5134768;27;20023;-90
2021/01/13 05:33:17;;;;;;;59.53;26.92;;;-2.70;90.30;;;;;;5134083;27;20023;-88
2021/01/13 05:35:47;;;;;;;58.92;27.33;;;-2.70;90.20;;;;;;5134681;27;20146;-88
2021/01/13 05:38:23;;;;;;;64.32;30.40;;;-2.60;90.20;;;;;;5134600;27;20027;-88
2021/01/13 05:40:55;;;;;;;65.88;28.95;;;-2.70;90.30;;;;;;5134570;27;20059;-88
2021/01/13 05:43:22;;;;;;;62.13;27.90;;;-2.70;90.10;;;;;;5169202;27;20023;-88
2021/01/13 05:45:50;;;;;;;64.68;29.55;;;-2.70;90.10;;;;;;5134173;27;20019;-88
2021/01/13 05:48:24;;;;;;;62.30;26.75;;;-2.70;90.50;;;;;;5134834;27;20533;-88
2021/01/13 05:50:55;;;;;;;69.60;30.17;;;-2.70;90.20;;;;;;5134694;27;20061;-88
2021/01/13 05:53:25;;;;;;;64.00;26.92;;;-2.70;90.50;;;;;;5134464;27;20072;-88
2021/01/13 05:55:52;;;;;;;66.32;28.25;;;-2.60;90.10;;;;;;5134089;27;20027;-92
2021/01/13 05:58:25;;;;;;;62.78;27.40;;;-2.60;90.20;;;;;;5134456;27;20045;-88
2021/01/13 06:00:56;;;;;;;67.55;30.20;;;-2.60;90.30;;;;;;5135707;27;20023;-88
2021/01/13 06:03:28;;;;;;;68.40;29.45;;;-2.70;90.50;;;;;;5134471;27;20019;-87
2021/01/13 06:05:57;;;;;;;63.53;26.67;;;-2.70;90.50;;;;;;5134334;27;20403;-88
2021/01/13 06:08:32;;;;;;;68.28;29.77;;;-2.70;90.30;;;;;;5134355;27;20038;-88
2021/01/13 06:11:02;;;;;;;73.18;31.95;;;-2.70;90.40;;;;;;5134657;27;20038;-90
2021/01/13 06:13:33;;;;;;;68.10;28.83;;;-2.70;90.40;;;;;;5134443;28;20027;-94
2021/01/13 06:16:05;;;;;;;64.63;27.17;;;-2.60;90.40;;;;;;5134369;28;20031;-86
2021/01/13 06:18:35;;;;;;;61.05;26.23;;;-2.60;90.30;;;;;;5134318;28;20019;-94
2021/01/13 06:21:09;;;;;;;60.05;26.00;;;-2.60;90.10;;;;;;5134519;28;20055;-91
2021/01/13 06:23:49;;;;;;;60.95;26.60;;;-2.50;90.10;;;;;;5137164;28;20027;-94
2021/01/13 06:26:16;;;;;;;71.90;29.88;;;-2.60;90.00;;;;;;5134561;28;20046;-91
2021/01/13 06:29:00;;;;;;;73.97;31.42;;;-2.60;90.10;;;;;;5134243;28;20076;-91
2021/01/13 06:31:28;;;;;;;72.45;32.45;;;-2.60;90.10;;;;;;5134760;28;20093;-91
2021/01/13 06:34:36;;;;;;;59.70;26.73;;;-2.70;90.10;;;;;;5134572;28;20358;-92
2021/01/13 06:37:45;;;;;;;57.33;24.40;;;-2.70;90.10;;;;;;5134479;28;20022;-91
2021/01/13 06:40:13;;;;;;;58.50;26.25;;;-2.60;90.00;;;;;;5120612;28;20027;-91
2021/01/13 06:42:40;;;;;;;63.63;31.05;;;-2.70;90.20;;;;;;5134283;28;20080;-91
2021/01/13 06:45:11;;;;;;;68.63;31.02;;;-2.70;90.10;;;;;;5135773;27;20484;-91
2021/01/13 06:47:52;;;;;;;55.10;25.95;;;-2.70;90.20;;;;;;5137966;27;20054;-90
2021/01/13 06:50:31;;;;;;;53.70;25.88;;;-2.70;90.10;;;;;;5138276;27;20096;-91
2021/01/13 06:52:58;;;;;;;54.72;27.17;;;-2.60;90.10;;;;;;5139350;27;20107;-91
2021/01/13 06:55:31;;;;;;;59.80;26.13;;;-2.60;90.10;;;;;;5138279;27;20106;-92
2021/01/13 06:58:17;;;;;;;51.40;22.52;;;-2.70;90.00;;;;;;5138120;27;20381;-90
2021/01/13 07:00:47;;;;;;;47.95;22.13;;;-2.70;90.20;;;;;;5140904;27;20572;-91
2021/01/13 07:03:21;;;;;;;56.10;23.93;;;-2.70;90.20;;;;;;5137798;27;20020;-91
2021/01/13 07:05:47;;;;;;;50.63;23.50;;;-2.70;90.60;;;;;;5137603;27;20057;-90
2021/01/13 07:08:13;;;;;;;43.17;19.67;;;-2.80;90.60;;;;;;5138294;27;20015;-90
2021/01/13 07:10:39;;;;;;;42.72;20.25;;;-2.80;90.60;;;;;;5139581;27;20088;-91
2021/01/13 07:13:09;;;;;;;45.28;20.40;;;-2.80;90.60;;;;;;5138364;27;20019;-91
2021/01/13 07:15:38;;;;;;;36.95;17.27;;;-2.80;90.60;;;;;;5137897;27;20023;-89
2021/01/13 07:18:04;;;;;;;39.85;17.45;;;-2.80;90.50;;;;;;5137278;27;20031;-90
2021/01/13 07:20:37;;;;;;;39.85;18.60;;;-2.80;90.10;;;;;;5137514;27;20099;-90
2021/01/13 07:23:04;;;;;;;39.38;17.63;;;-2.80;90.50;;;;;;5137144;27;20034;-90
2021/01/13 07:25:29;;;;;;;35.90;17.92;;;-2.80;90.30;;;;;;5137038;27;20027;-93
2021/01/13 07:28:01;;;;;;;36.13;18.13;;;-2.80;90.60;;;;;;5137039;27;20461;-91
2021/01/13 07:30:31;;;;;;;36.90;18.38;;;-2.80;90.70;;;;;;5137317;27;20035;-91
2021/01/13 07:33:09;;;;;;;40.20;19.98;;;-2.80;90.70;;;;;;5136964;27;20031;-91
2021/01/13 07:35:45;;;;;;;34.40;17.60;;;-2.70;90.50;;;;;;5137193;27;20370;-92
2021/01/13 07:38:21;;;;;;;47.15;20.23;;;-2.70;90.50;;;;;;5136934;27;20029;-92
2021/01/13 07:40:58;;;;;;;45.75;19.88;;;-2.60;90.50;;;;;;5136931;27;20384;-92
2021/01/13 07:44:10;;;;;;;38.03;18.63;;;-2.50;90.50;;;;;;5136805;27;20020;-92
2021/01/13 07:46:35;;;;;;;38.40;18.92;;;-2.50;90.10;;;;;;5136793;27;20024;-92
2021/01/13 07:49:19;;;;;;;37.30;17.05;;;-2.60;90.20;;;;;;5136756;27;20408;-96
2021/01/13 07:51:58;;;;;;;32.60;15.20;;;-2.50;90.00;;;;;;5138104;27;20380;-96
2021/01/13 07:54:28;;;;;;;32.40;15.40;;;-2.60;89.50;;;;;;5131259;27;20133;-94
2021/01/13 07:57:05;;;;;;;36.53;17.15;;;-2.60;89.80;;;;;;5135654;27;20540;-94
2021/01/13 07:59:40;;;;;;;30.48;15.57;;;-2.50;90.00;;;;;;5136710;27;20023;-94
2021/01/13 08:02:06;;;;;;;34.65;16.77;;;-2.50;89.20;;;;;;5137541;27;20031;-94
2021/01/13 08:05:09;;;;;;;31.30;15.55;;;-2.60;89.80;;;;;;5136738;27;20019;-94
2021/01/13 08:07:40;;;;;;;35.72;17.77;;;-2.50;90.00;;;;;;5136725;27;20023;-94
2021/01/13 08:10:08;;;;;;;30.67;15.73;;;-2.50;90.00;;;;;;5136473;27;20023;-93
2021/01/13 08:13:11;;;;;;;28.35;15.15;;;-2.50;89.20;;;;;;5138259;27;20032;-95
2021/01/13 08:16:16;;;;;;;30.55;15.45;;;-2.50;89.00;;;;;;5139151;27;20113;-95
2021/01/13 08:19:20;;;;;;;24.58;13.27;;;-2.50;89.20;;;;;;5136416;27;20460;-91
2021/01/13 08:22:01;;;;;;;34.50;15.45;;;-2.40;88.90;;;;;;5137565;27;20076;-95
2021/01/13 08:24:34;;;;;;;38.45;16.13;;;-2.30;89.30;;;;;;5137582;27;20044;-94
2021/01/13 08:27:01;;;;;;;41.83;17.67;;;-2.20;88.70;;;;;;5136132;27;20026;-93
2021/01/13 08:29:34;;;;;;;40.80;16.73;;;-2.20;88.10;;;;;;5136167;27;20019;-93
2021/01/13 08:32:03;;;;;;;27.63;14.15;;;-2.20;87.80;;;;;;5136223;27;20087;-92
2021/01/13 08:34:42;;;;;;;26.00;13.88;;;-2.20;88.10;;;;;;5136002;27;20023;-91
2021/01/13 08:37:08;;;;;;;29.85;14.18;;;-2.30;88.80;;;;;;5136168;27;20096;-90
2021/01/13 08:39:38;;;;;;;27.38;14.70;;;-2.30;88.90;;;;;;5136103;27;20044;-91
2021/01/13 08:42:23;;;;;;;24.27;12.98;;;-2.20;88.60;;;;;;5136016;27;20023;-93
2021/01/13 08:44:52;;;;;;;30.27;14.38;;;-2.30;88.90;;;;;;5138883;27;20076;-93
2021/01/13 08:47:18;;;;;;;27.90;14.95;;;-2.30;88.60;;;;;;5135561;27;20071;-94
2021/01/13 08:49:44;;;;;;;23.17;12.80;;;-2.20;89.30;;;;;;5136197;27;20027;-93
2021/01/13 08:52:22;;;;;;;27.10;14.85;;;-2.20;88.30;;;;;;5136379;27;20121;-92
2021/01/13 08:54:48;;;;;;;21.60;11.57;;;-2.20;88.60;;;;;;5139668;27;20019;-96
2021/01/13 08:57:19;;;;;;;26.40;13.50;;;-2.20;88.60;;;;;;5136264;27;20019;-94
2021/01/13 08:59:46;;;;;;;45.50;21.48;;;-2.20;88.10;;;;;;5136096;27;20063;-86
2021/01/13 09:02:43;;;;;;;33.05;16.67;;;-2.20;88.70;;;;;;5136348;27;20023;-95
2021/01/13 09:05:27;;;;;;;27.45;14.10;;;-2.30;89.90;;;;;;5140480;27;20019;-96
2021/01/13 09:07:53;;;;;;;31.75;15.57;;;-2.30;89.90;;;;;;5135740;27;20075;-89
2021/01/13 09:10:20;;;;;;;37.33;17.92;;;-2.30;89.70;;;;;;5137558;27;20042;-90
2021/01/13 09:12:46;;;;;;;50.22;21.83;;;-2.40;89.10;;;;;;5135432;27;20027;-92
2021/01/13 09:15:25;;;;;;;64.80;24.33;;;-2.30;89.40;;;;;;5135554;27;20023;-93
2021/01/13 09:17:56;;;;;;;26.67;13.35;;;-2.20;89.60;;;;;;5137536;27;20046;-96
2021/01/13 09:20:26;;;;;;;22.42;12.25;;;-2.30;88.20;;;;;;5143669;27;20067;-95
2021/01/13 09:22:57;;;;;;;;;;;-2.30;89.00;;;;;;5136918;27;20023;-91
2021/01/13 09:25:31;;;;;;;25.30;12.40;;;-2.20;88.70;;;;;;5135223;27;19995;-90
2021/01/13 09:28:02;;;;;;;21.17;11.57;;;-2.20;88.50;;;;;;5134963;27;20027;-93
2021/01/13 09:30:36;;;;;;;32.13;13.48;;;-2.20;88.20;;;;;;5135285;27;20019;-91
2021/01/13 09:33:04;;;;;;;53.70;18.05;;;-2.10;88.70;;;;;;5136912;27;20031;-95
2021/01/13 09:35:32;;;;;;;31.95;13.98;;;-2.00;88.60;;;;;;5135404;27;20027;-91
2021/01/13 09:38:09;;;;;;;32.78;13.82;;;-2.00;89.20;;;;;;5135249;27;20034;-92
2021/01/13 09:41:02;;;;;;;27.02;12.63;;;-1.90;88.80;;;;;;5134993;27;20031;-94
2021/01/13 09:43:28;;;;;;;23.48;12.32;;;-2.10;87.50;;;;;;5135162;27;20358;-94
2021/01/13 09:45:59;;;;;;;21.58;11.25;;;-2.10;87.70;;;;;;5135068;27;20118;-91
2021/01/13 09:48:26;;;;;;;;;;;-2.10;87.50;;;;;;5135221;27;20047;-94
2021/01/13 09:51:00;;;;;;;21.25;10.75;;;-2.00;86.60;;;;;;5134742;27;19903;-93
2021/01/13 09:53:30;;;;;;;23.00;12.13;;;-2.10;86.60;;;;;;5134438;27;20114;-92
2021/01/13 09:56:07;;;;;;;32.10;13.65;;;-2.10;86.60;;;;;;5134567;27;20027;-93
2021/01/13 09:58:44;;;;;;;33.42;12.95;;;-2.10;86.90;;;;;;5133928;27;20023;-95
2021/01/13 10:01:27;;;;;;;28.05;12.48;;;-2.10;86.90;;;;;;5134569;27;20511;-92
2021/01/13 10:03:57;;;;;;;21.48;10.98;;;-1.90;88.30;;;;;;5134550;27;20028;-93
2021/01/13 10:06:28;;;;;;;24.05;11.68;;;-1.90;85.70;;;;;;5134679;27;20465;-93
2021/01/13 10:08:59;;;;;;;25.35;11.95;;;-2.10;85.20;;;;;;5134433;27;20088;-92
2021/01/13 10:11:26;;;;;;;20.88;10.68;;;-2.00;86.20;;;;;;5134312;27;20384;-92
2021/01/13 10:13:59;;;;;;;19.83;11.15;;;-1.90;87.10;;;;;;5134495;28;20023;-92
2021/01/13 10:16:25;;;;;;;29.27;13.50;;;-1.90;86.10;;;;;;5134276;28;20035;-93
2021/01/13 10:19:03;;;;;;;23.40;11.70;;;-1.90;85.90;;;;;;5134507;27;20023;-92
2021/01/13 10:21:38;;;;;;;20.38;10.48;;;-2.00;85.40;;;;;;5139456;27;20485;-92
2021/01/13 10:24:12;;;;;;;25.55;12.02;;;-1.80;86.80;;;;;;5140322;27;20482;-91
2021/01/13 10:26:39;;;;;;;20.80;10.77;;;-1.80;86.40;;;;;;5138668;27;20019;-92
2021/01/13 10:29:06;;;;;;;19.80;11.38;;;-1.80;86.00;;;;;;5138607;27;20015;-92
2021/01/13 10:31:33;;;;;;;27.77;12.95;;;-1.80;85.40;;;;;;5138649;27;20026;-92
2021/01/13 10:34:00;;;;;;;27.05;13.48;;;-1.90;84.80;;;;;;5138317;27;20108;-92
2021/01/13 10:36:49;;;;;;;25.30;12.35;;;-1.90;84.70;;;;;;5138509;27;20023;-92
2021/01/13 10:39:21;;;;;;;21.02;10.55;;;-1.80;85.90;;;;;;5138232;27;20033;-95
2021/01/13 10:41:52;;;;;;;20.52;11.15;;;-1.90;84.80;;;;;;5137994;27;20038;-92
2021/01/13 10:44:23;;;;;;;19.85;10.25;;;-1.90;84.30;;;;;;5138515;27;20034;-92
2021/01/13 10:47:02;;;;;;;27.15;12.55;;;-1.80;85.90;;;;;;5138235;27;20030;-91
2021/01/13 10:49:32;;;;;;;21.95;12.07;;;-1.70;85.60;;;;;;5138249;27;20385;-93
2021/01/13 10:51:58;;;;;;;21.55;11.35;;;-1.70;84.50;;;;;;5138719;27;20079;-94
2021/01/13 10:54:29;;;;;;;21.73;11.50;;;-1.70;85.30;;;;;;5143302;27;20028;-94
2021/01/13 10:57:00;;;;;;;17.35;9.68;;;-1.90;83.60;;;;;;5138050;27;20059;-92
2021/01/13 10:59:28;;;;;;;17.00;9.57;;;-1.80;84.50;;;;;;5144698;27;20064;-93
2021/01/13 11:02:06;;;;;;;26.23;12.07;;;-1.80;84.40;;;;;;5139850;27;20106;-93
2021/01/13 11:04:33;;;;;;;24.83;12.55;;;-1.90;83.20;;;;;;5137749;27;20020;-93
2021/01/13 11:07:08;;;;;;;20.00;10.15;;;-2.00;83.60;;;;;;5139437;27;20023;-94
2021/01/13 11:09:40;;;;;;;24.42;10.80;;;-1.90;84.90;;;;;;5137949;27;20019;-93
2021/01/13 11:12:06;;;;;;;21.98;11.07;;;-2.00;83.90;;;;;;5137939;27;20447;-91
2021/01/13 11:14:46;;;;;;;24.05;10.98;;;-2.00;83.50;;;;;;5139158;27;20042;-93
2021/01/13 11:17:18;;;;;;;22.80;11.02;;;-1.90;84.30;;;;;;5137587;27;20027;-92
2021/01/13 11:20:05;;;;;;;19.45;9.52;;;-2.00;83.20;;;;;;5137609;27;20023;-94
2021/01/13 11:22:44;;;;;;;14.85;8.98;;;-1.90;83.80;;;;;;5138180;27;20026;-96
2021/01/13 11:25:17;;;;;;;16.65;8.40;;;-2.00;82.40;;;;;;5137679;27;20050;-92
2021/01/13 11:27:44;;;;;;;15.27;9.15;;;-2.00;83.70;;;;;;5137563;27;20020;-94
2021/01/13 11:30:13;;;;;;;20.42;9.77;;;-2.10;83.50;;;;;;5137320;27;20172;-94
2021/01/13 11:32:43;;;;;;;15.10;8.70;;;-2.10;83.00;;;;;;5137501;27;20064;-94
2021/01/13 11:35:09;;;;;;;16.83;8.85;;;-2.10;83.50;;;;;;5137649;27;20051;-95
2021/01/13 11:37:51;;;;;;;17.27;9.10;;;-2.10;83.50;;;;;;5137792;27;20425;-94
2021/01/13 11:40:34;;;;;;;23.13;10.07;;;-2.00;83.20;;;;;;5137376;27;20039;-94
2021/01/13 11:43:36;;;;;;;27.48;12.35;;;-2.10;83.20;;;;;;5137826;27;20067;-94
2021/01/13 11:46:14;;;;;;;16.65;9.57;;;-2.10;82.90;;;;;;5137836;27;20021;-94
2021/01/13 11:48:52;;;;;;;21.75;10.88;;;-2.20;82.70;;;;;;5137536;27;20043;-94
2021/01/13 11:51:21;;;;;;;21.45;10.43;;;-2.20;82.60;;;;;;5144387;27;20521;-95
2021/01/13 11:53:47;;;;;;;20.77;10.13;;;-2.20;83.00;;;;;;5141408;27;20027;-96
2021/01/13 11:56:14;;;;;;;16.88;10.15;;;-2.20;83.50;;;;;;5142602;27;20388;-93
2021/01/13 11:58:47;;;;;;;15.82;9.32;;;-2.20;83.30;;;;;;5138396;27;20023;-94
2021/01/13 12:01:13;;;;;;;20.27;10.00;;;-2.20;83.90;;;;;;5137230;27;20027;-92
2021/01/13 12:03:39;;;;;;;19.08;9.10;;;-2.10;83.60;;;;;;5139120;27;20450;-92
2021/01/13 12:06:09;;;;;;;36.55;14.50;;;-2.10;83.10;;;;;;5146083;27;20034;-91
2021/01/13 12:08:35;;;;;;;20.15;10.30;;;-2.10;83.00;;;;;;5145720;27;20341;-96
2021/01/13 12:11:01;;;;;;;21.15;10.65;;;-2.10;82.80;;;;;;5140826;27;20027;-92
2021/01/13 12:13:33;;;;;;;21.48;10.30;;;-2.10;83.30;;;;;;5140748;27;20031;-95
2021/01/13 12:16:03;;;;;;;21.33;10.88;;;-2.10;83.10;;;;;;5139332;27;20030;-92
2021/01/13 12:18:43;;;;;;;32.03;14.95;;;-2.10;83.00;;;;;;5140427;27;20035;-95
2021/01/13 12:21:12;;;;;;;22.45;12.18;;;-2.20;83.00;;;;;;5140877;27;20047;-94
2021/01/13 12:23:39;;;;;;;25.85;13.57;;;-2.10;83.20;;;;;;5140218;27;20019;-95
2021/01/13 12:26:30;;;;;;;22.42;12.55;;;-2.20;83.50;;;;;;5137802;27;20090;-94
2021/01/13 12:29:08;;;;;;;29.65;13.90;;;-2.20;84.10;;;;;;5136327;27;20019;-95
2021/01/13 12:31:42;;;;;;;33.63;15.13;;;-2.20;83.10;;;;;;5136481;27;20127;-96
2021/01/13 12:34:12;;;;;;;29.63;13.88;;;-2.20;83.40;;;;;;5136238;27;20027;-96
2021/01/13 12:36:45;;;;;;;47.72;21.73;;;-2.20;83.70;;;;;;5146565;27;20091;-96
2021/01/13 12:39:31;;;;;;;29.58;15.80;;;-2.20;84.60;;;;;;5151094;27;20032;-96
2021/01/13 12:42:16;;;;;;;32.97;17.83;;;-2.20;83.20;;;;;;5154662;27;20022;-96
2021/01/13 12:44:42;;;;;;;24.80;14.32;;;-2.20;83.50;;;;;;5149213;27;20027;-94
2021/01/13 12:47:09;;;;;;;20.38;11.48;;;-2.30;82.60;;;;;;5251199;22;20073;-96
2021/01/13 12:54:38;;;;;;;20.10;12.48;;;-2.30;83.00;;;;;;5215723;22;20056;-96
2021/01/13 12:57:04;;;;;;;29.23;15.45;;;-2.30;82.60;;;;;;5078943;28;20049;-95
2021/01/13 12:59:29;;;;;;;34.28;19.08;;;-2.30;83.00;;;;;;5096364;28;20477;-95
2021/01/13 13:01:58;;;;;;;23.10;13.57;;;-2.30;83.20;;;;;;5078492;28;20028;-93
2021/01/13 13:04:25;;;;;;;26.10;15.23;;;-2.20;82.70;;;;;;5078140;28;20020;-91